map of UTH home
UTH - Airport
Location
City:  Udon Thani, Udon Thani, Thailand
Name:Udon Thani International Airport
ICAO:VTUD
IATA:UTH

Details
Type:Airport (Aerodrome, Airfield)
Use:Public/Civil, International (customs port of entry)
Latitude:1723'11"N (17.386436)
Longitude:10247'18"E (102.788247)
Datum:WGS 1984
Elevation:579 ft (176 m)
Variation:0.88W (WMM2015 magnetic declination)
-0.01 annual change
Runways:1
Longest:10000 × 148 ft (3048 × 45 m), paved

Time
Time Zone:UTC+7
Local Time:

Weather
METAR:VTUD 220400Z 11007KT 050V160 CAVOK 24/13 Q1020 NOSIG
TAF:VTUD 212300Z 2200/2224 09006KT 9999 FEW040= TAF VTUI 212300Z 2200/2224 12008KT 9999 FEW040

Related Locations
Nearby:
Farthest:SJA: 12242 mi / 19702 km
San Juan de Marcona [San Juan de Marcona Airport], ICA, PE

Find:

   beyond  
but within

Other Information
Maps:
NOTAMs:
Links:
Sources:

  
  • flag of Thailand
  

Sectional Chart

Flight Planning
at skyvector.com

Satellite Image

Google Maps Satellite view

 

Copyright © 2004-2019 Karl L. Swartz. All rights reserved.
The Great Circle Mapper name and logo are trademarks of the Great Circle Mapper.
All other trademarks mentioned herein belong to their respective owners.
Please see credits for attibutions and further copyright information.

  Follow gcmap on Facebook Follow gcmap on Twitter Follow gcmap on Google+ GCmap on LinkedIn

hCard Microformat

Geo Microformat